• Join FlightAware (Why Join?)
  • Login
  • US Flag 
09:50AM EDT


 

Airport Tracker/Info


-or-


 

Live Flight TrackerFlight Track Log ✈ EJM826 ✈ 27-Jul-2013 ✈ KTRK - KHOU

Flight Track Log - Related Links

Times and Time Zones

All times are in EDT time to prevent confusion due to time zone crossing. See the EJM826 flight status page for this flight to view local times or setup timezone preferences in your user account.

Time Position Orientation Groundspeed Altitude Reporting Facility
EDT Latitude Longitude Course Direction KTS MPH feet Rate Location/Type
04:11PM 31.6697 -96.8575 164° South 498 573 37,400  Level Houston Center
04:12PM 31.5392 -96.8125 164° South 489 563 37,000 -240 Descending Houston Center
04:13PM 31.4003 -96.7889 172° South 496 571 37,000  Level Houston Center
04:14PM 31.2581 -96.7650 172° South 503 579 37,000  Level Houston Center
04:15PM 31.1161 -96.7414 172° South 506 582 37,000 -1,200 Level Houston Center
04:16PM 30.9775 -96.7194 172° South 498 573 34,600 -3,000 Descending Houston Center
04:17PM 30.8136 -96.6931 172° South 500 575 30,800 -3,540 Descending Houston Center
04:18PM 30.6817 -96.6722 172° South 481 554 27,400 -3,300 Descending Houston Center
04:19PM 30.5636 -96.6317 164° South 454 522 24,000 -3,240 Descending Houston Center
04:20PM 30.4797 -96.5317 134° Southeast 434 499 20,700 -3,360 Descending Houston Center
04:21PM 30.4225 -96.4644 135° Southeast 413 475 18,400 -3,000 Descending Houston Center
04:22PM 30.3231 -96.3447 134° Southeast 393 452 14,600 -2,820 Descending Houston Center
04:23PM 30.2617 -96.2719 134° Southeast 367 422 12,400 -2,100 Descending Houston Center
04:24PM 30.1861 -96.1983 140° Southeast 356 410 11,000 -720 Descending Houston Center
04:25PM 30.1069 -96.1542 154° Southeast 319 367 11,000  Level Houston Center
04:26PM 30.0344 -96.0922 144° Southeast 300 345 11,000  Level Houston Center
04:27PM 29.9667 -96.0350 144° Southeast 300 345 11,000  Level Houston Center
04:28PM 29.9006 -95.9750 142° Southeast 300 345 11,000  Level Houston Center
04:29PM 29.8347 -95.9175 143° Southeast 298 343 11,000  Level Houston Center
04:30PM 29.7794 -95.8397 129° Southeast 301 346 11,000 -900 Level Houston Center
04:31PM 29.7325 -95.7586 124° Southeast 305 351 9,200 -1,860 Descending Houston Center
04:32PM 29.6878 -95.6794 123° Southeast 290 334 7,200 -1,140 Descending Houston Center
04:33PM 29.6511 -95.5997 118° Southeast 282 325 7,000 -600 Descending Houston Center
04:34PM 29.6283 -95.5086 106° East 276 318 6,100 -420 Descending Houston Center
04:35PM 29.6083 -95.4106 103° East 243 280 6,000 -60 Descending Houston Center
04:36PM 29.6019 -95.3581 98° East 244 281 6,000  Level Houston Center
04:36PM 29.5972 -95.3208 98° East 238 274 6,000  Level Houston Center
04:37PM 29.5903 -95.2778 100° East 241 277 6,000  Level Houston Center
04:37PM 29.5875 -95.2450 96° East 241 277 6,000 -720 Level Houston Center
04:39PM 29.6069 -95.1811 71° East 249 287 4,900 -1,020 Descending Houston Center
04:40PM 29.6542 -95.1081 53° Northeast 243 280 4,000 -720 Descending Houston Center
04:41PM 29.7069 -95.0942 13° North 221 254 3,500 -840 Descending Houston Center
04:42PM 29.7561 -95.1342 325° Northwest 228 262 2,300 -840 Descending Houston Center
04:42PM 29.7461 -95.1697 252° West 190 219 2,200 -120 Descending Houston Center
04:43PM 29.7347 -95.1803 219° Southwest 200 230 2,200 -420 Level Houston Center
04:44PM 29.7044 -95.2147 225° Southwest 149 171 1,600 -660 Descending Houston Center
04:45PM 29.6817 -95.2394 223° Southwest 126 145 900 -720 Descending Houston Center
04:46PM 29.6586 -95.2642 223° Southwest 118 136 200 -720 Descending Houston Center